sensor_id;sensor_type;location;lat;lon;timestamp;temperature;humidity
84791;DHT22;75024;43.486;3.794;2024-01-25T00:01:11;13.70;61.20
84791;DHT22;75024;43.486;3.794;2024-01-25T00:03:37;13.60;61.50
84791;DHT22;75024;43.486;3.794;2024-01-25T00:06:03;13.70;61.10
84791;DHT22;75024;43.486;3.794;2024-01-25T00:08:29;13.60;61.00
84791;DHT22;75024;43.486;3.794;2024-01-25T00:10:55;13.70;60.20
84791;DHT22;75024;43.486;3.794;2024-01-25T00:13:20;13.80;59.80
84791;DHT22;75024;43.486;3.794;2024-01-25T00:15:46;13.80;59.80
84791;DHT22;75024;43.486;3.794;2024-01-25T00:18:12;13.90;59.60
84791;DHT22;75024;43.486;3.794;2024-01-25T00:20:37;13.80;60.10
84791;DHT22;75024;43.486;3.794;2024-01-25T00:23:03;13.80;60.30
84791;DHT22;75024;43.486;3.794;2024-01-25T00:25:29;13.80;60.30
84791;DHT22;75024;43.486;3.794;2024-01-25T00:27:54;13.70;60.60
84791;DHT22;75024;43.486;3.794;2024-01-25T00:30:20;13.70;61.10
84791;DHT22;75024;43.486;3.794;2024-01-25T00:32:45;13.60;61.60
84791;DHT22;75024;43.486;3.794;2024-01-25T00:35:12;13.30;62.80
84791;DHT22;75024;43.486;3.794;2024-01-25T00:37:40;13.10;63.20
84791;DHT22;75024;43.486;3.794;2024-01-25T00:40:06;13.20;62.80
84791;DHT22;75024;43.486;3.794;2024-01-25T00:42:40;13.30;62.40
84791;DHT22;75024;43.486;3.794;2024-01-25T00:45:07;13.30;62.40
84791;DHT22;75024;43.486;3.794;2024-01-25T00:47:33;13.20;62.40
84791;DHT22;75024;43.486;3.794;2024-01-25T00:49:59;13.10;62.60
84791;DHT22;75024;43.486;3.794;2024-01-25T00:52:25;13.00;62.80
84791;DHT22;75024;43.486;3.794;2024-01-25T00:54:51;13.10;62.50
84791;DHT22;75024;43.486;3.794;2024-01-25T00:57:17;13.10;62.40
84791;DHT22;75024;43.486;3.794;2024-01-25T00:59:43;13.10;62.40
84791;DHT22;75024;43.486;3.794;2024-01-25T01:02:12;13.10;62.20
84791;DHT22;75024;43.486;3.794;2024-01-25T01:04:39;13.20;62.10
84791;DHT22;75024;43.486;3.794;2024-01-25T01:07:05;13.20;62.00
84791;DHT22;75024;43.486;3.794;2024-01-25T01:09:31;13.10;62.00
84791;DHT22;75024;43.486;3.794;2024-01-25T01:11:57;13.10;62.10
84791;DHT22;75024;43.486;3.794;2024-01-25T01:14:22;13.10;62.10
84791;DHT22;75024;43.486;3.794;2024-01-25T01:16:48;13.10;62.20
84791;DHT22;75024;43.486;3.794;2024-01-25T01:19:16;13.10;62.20
84791;DHT22;75024;43.486;3.794;2024-01-25T01:21:42;13.00;62.40
84791;DHT22;75024;43.486;3.794;2024-01-25T01:24:10;13.00;62.70
84791;DHT22;75024;43.486;3.794;2024-01-25T01:26:36;12.90;62.70
84791;DHT22;75024;43.486;3.794;2024-01-25T01:29:02;12.80;63.10
84791;DHT22;75024;43.486;3.794;2024-01-25T01:31:28;12.70;63.30
84791;DHT22;75024;43.486;3.794;2024-01-25T01:33:54;12.70;63.30
84791;DHT22;75024;43.486;3.794;2024-01-25T01:36:20;12.60;63.60
84791;DHT22;75024;43.486;3.794;2024-01-25T01:38:46;12.60;63.70
84791;DHT22;75024;43.486;3.794;2024-01-25T01:41:12;12.50;63.80
84791;DHT22;75024;43.486;3.794;2024-01-25T01:43:40;12.40;64.20
84791;DHT22;75024;43.486;3.794;2024-01-25T01:46:36;12.50;64.00
84791;DHT22;75024;43.486;3.794;2024-01-25T01:49:04;12.40;64.30
84791;DHT22;75024;43.486;3.794;2024-01-25T01:51:31;12.50;64.10
84791;DHT22;75024;43.486;3.794;2024-01-25T01:53:58;12.50;64.10
84791;DHT22;75024;43.486;3.794;2024-01-25T01:56:27;12.40;64.30
84791;DHT22;75024;43.486;3.794;2024-01-25T01:58:54;12.40;64.10
84791;DHT22;75024;43.486;3.794;2024-01-25T02:01:21;12.60;63.30
84791;DHT22;75024;43.486;3.794;2024-01-25T02:03:47;12.50;63.40
84791;DHT22;75024;43.486;3.794;2024-01-25T02:06:12;12.50;63.20
84791;DHT22;75024;43.486;3.794;2024-01-25T02:08:38;12.50;63.00
84791;DHT22;75024;43.486;3.794;2024-01-25T02:11:04;12.50;63.10
84791;DHT22;75024;43.486;3.794;2024-01-25T02:13:30;12.40;63.70
84791;DHT22;75024;43.486;3.794;2024-01-25T02:15:55;12.30;64.00
84791;DHT22;75024;43.486;3.794;2024-01-25T02:18:22;12.20;63.90
84791;DHT22;75024;43.486;3.794;2024-01-25T02:20:47;12.20;63.90
84791;DHT22;75024;43.486;3.794;2024-01-25T02:23:13;12.20;63.70
84791;DHT22;75024;43.486;3.794;2024-01-25T02:25:39;12.10;64.20
84791;DHT22;75024;43.486;3.794;2024-01-25T02:28:05;12.00;64.50
84791;DHT22;75024;43.486;3.794;2024-01-25T02:30:30;12.00;64.40
84791;DHT22;75024;43.486;3.794;2024-01-25T02:32:56;12.00;64.60
84791;DHT22;75024;43.486;3.794;2024-01-25T02:35:22;11.90;64.90
84791;DHT22;75024;43.486;3.794;2024-01-25T02:37:47;11.90;64.80
84791;DHT22;75024;43.486;3.794;2024-01-25T02:40:13;12.00;64.50
84791;DHT22;75024;43.486;3.794;2024-01-25T02:42:39;11.90;64.60
84791;DHT22;75024;43.486;3.794;2024-01-25T02:45:05;11.90;64.30
84791;DHT22;75024;43.486;3.794;2024-01-25T02:47:30;11.80;64.50
84791;DHT22;75024;43.486;3.794;2024-01-25T02:49:56;11.70;65.00
84791;DHT22;75024;43.486;3.794;2024-01-25T02:52:22;11.60;65.50
84791;DHT22;75024;43.486;3.794;2024-01-25T02:54:47;11.40;66.10
84791;DHT22;75024;43.486;3.794;2024-01-25T02:57:14;11.30;66.10
84791;DHT22;75024;43.486;3.794;2024-01-25T02:59:40;11.30;66.30
84791;DHT22;75024;43.486;3.794;2024-01-25T03:02:05;11.10;66.50
84791;DHT22;75024;43.486;3.794;2024-01-25T03:04:31;11.10;66.50
84791;DHT22;75024;43.486;3.794;2024-01-25T03:06:56;10.90;67.20
84791;DHT22;75024;43.486;3.794;2024-01-25T03:09:22;10.80;67.70
84791;DHT22;75024;43.486;3.794;2024-01-25T03:11:49;10.70;68.00
84791;DHT22;75024;43.486;3.794;2024-01-25T03:14:15;10.60;68.30
84791;DHT22;75024;43.486;3.794;2024-01-25T03:16:41;10.60;68.10
84791;DHT22;75024;43.486;3.794;2024-01-25T03:19:06;10.60;68.40
84791;DHT22;75024;43.486;3.794;2024-01-25T03:21:32;10.60;68.40
84791;DHT22;75024;43.486;3.794;2024-01-25T03:23:57;10.60;68.20
84791;DHT22;75024;43.486;3.794;2024-01-25T03:26:23;10.70;68.10
84791;DHT22;75024;43.486;3.794;2024-01-25T03:28:49;10.70;68.30
84791;DHT22;75024;43.486;3.794;2024-01-25T03:31:14;10.60;68.20
84791;DHT22;75024;43.486;3.794;2024-01-25T03:33:40;10.60;68.30
84791;DHT22;75024;43.486;3.794;2024-01-25T03:36:06;10.50;68.60
84791;DHT22;75024;43.486;3.794;2024-01-25T03:38:32;10.40;69.00
84791;DHT22;75024;43.486;3.794;2024-01-25T03:40:58;10.40;68.70
84791;DHT22;75024;43.486;3.794;2024-01-25T03:43:27;10.40;68.70
84791;DHT22;75024;43.486;3.794;2024-01-25T03:45:54;10.30;69.20
84791;DHT22;75024;43.486;3.794;2024-01-25T03:48:19;10.10;69.60
84791;DHT22;75024;43.486;3.794;2024-01-25T03:50:45;10.10;69.60
84791;DHT22;75024;43.486;3.794;2024-01-25T03:53:11;10.10;69.80
84791;DHT22;75024;43.486;3.794;2024-01-25T03:55:37;10.00;70.00
84791;DHT22;75024;43.486;3.794;2024-01-25T03:58:02;9.90;70.40
84791;DHT22;75024;43.486;3.794;2024-01-25T04:00:28;9.90;70.50
84791;DHT22;75024;43.486;3.794;2024-01-25T04:02:54;9.80;70.80
84791;DHT22;75024;43.486;3.794;2024-01-25T04:05:19;9.90;70.40
84791;DHT22;75024;43.486;3.794;2024-01-25T04:07:45;9.80;70.70
84791;DHT22;75024;43.486;3.794;2024-01-25T04:10:10;9.80;70.80
84791;DHT22;75024;43.486;3.794;2024-01-25T04:12:36;9.70;70.90
84791;DHT22;75024;43.486;3.794;2024-01-25T04:15:02;9.60;71.10
84791;DHT22;75024;43.486;3.794;2024-01-25T04:17:27;9.50;71.10
84791;DHT22;75024;43.486;3.794;2024-01-25T04:19:53;9.40;71.60
84791;DHT22;75024;43.486;3.794;2024-01-25T04:22:19;9.30;72.00
84791;DHT22;75024;43.486;3.794;2024-01-25T04:24:44;9.30;72.30
84791;DHT22;75024;43.486;3.794;2024-01-25T04:27:14;9.60;71.00
84791;DHT22;75024;43.486;3.794;2024-01-25T04:29:40;10.20;68.60
84791;DHT22;75024;43.486;3.794;2024-01-25T04:32:07;10.30;68.30
84791;DHT22;75024;43.486;3.794;2024-01-25T04:34:33;10.20;68.10
84791;DHT22;75024;43.486;3.794;2024-01-25T04:36:58;10.00;68.60
84791;DHT22;75024;43.486;3.794;2024-01-25T04:39:24;9.80;69.30
84791;DHT22;75024;43.486;3.794;2024-01-25T04:41:50;10.00;69.00
84791;DHT22;75024;43.486;3.794;2024-01-25T04:44:15;10.10;68.50
84791;DHT22;75024;43.486;3.794;2024-01-25T04:46:42;10.30;67.60
84791;DHT22;75024;43.486;3.794;2024-01-25T04:49:07;10.40;67.40
84791;DHT22;75024;43.486;3.794;2024-01-25T04:51:33;10.60;66.90
84791;DHT22;75024;43.486;3.794;2024-01-25T04:53:59;10.50;67.00
84791;DHT22;75024;43.486;3.794;2024-01-25T04:56:24;10.40;67.40
84791;DHT22;75024;43.486;3.794;2024-01-25T04:58:50;10.40;67.30
84791;DHT22;75024;43.486;3.794;2024-01-25T05:01:15;10.60;66.80
84791;DHT22;75024;43.486;3.794;2024-01-25T05:03:41;10.60;67.00
84791;DHT22;75024;43.486;3.794;2024-01-25T05:06:07;10.40;67.10
84791;DHT22;75024;43.486;3.794;2024-01-25T05:08:33;10.30;67.40
84791;DHT22;75024;43.486;3.794;2024-01-25T05:10:58;10.20;67.70
84791;DHT22;75024;43.486;3.794;2024-01-25T05:13:24;10.10;67.80
84791;DHT22;75024;43.486;3.794;2024-01-25T05:15:49;10.20;67.30
84791;DHT22;75024;43.486;3.794;2024-01-25T05:18:15;11.00;65.20
84791;DHT22;75024;43.486;3.794;2024-01-25T05:20:41;11.30;64.40
84791;DHT22;75024;43.486;3.794;2024-01-25T05:23:06;11.40;64.10
84791;DHT22;75024;43.486;3.794;2024-01-25T05:25:32;11.40;64.10
84791;DHT22;75024;43.486;3.794;2024-01-25T05:27:58;11.50;63.80
84791;DHT22;75024;43.486;3.794;2024-01-25T05:30:27;11.50;63.60
84791;DHT22;75024;43.486;3.794;2024-01-25T05:32:53;11.60;63.50
84791;DHT22;75024;43.486;3.794;2024-01-25T05:35:19;11.50;63.70
84791;DHT22;75024;43.486;3.794;2024-01-25T05:37:45;11.40;64.10
84791;DHT22;75024;43.486;3.794;2024-01-25T05:40:11;11.30;64.00
84791;DHT22;75024;43.486;3.794;2024-01-25T05:42:38;11.40;63.60
84791;DHT22;75024;43.486;3.794;2024-01-25T05:45:04;11.40;63.40
84791;DHT22;75024;43.486;3.794;2024-01-25T05:47:30;11.50;63.00
84791;DHT22;75024;43.486;3.794;2024-01-25T05:49:56;11.50;62.70
84791;DHT22;75024;43.486;3.794;2024-01-25T05:52:22;11.20;63.40
84791;DHT22;75024;43.486;3.794;2024-01-25T05:54:49;11.10;63.70
84791;DHT22;75024;43.486;3.794;2024-01-25T05:57:15;10.90;64.40
84791;DHT22;75024;43.486;3.794;2024-01-25T05:59:40;10.90;64.20
84791;DHT22;75024;43.486;3.794;2024-01-25T06:02:06;10.90;64.10
84791;DHT22;75024;43.486;3.794;2024-01-25T06:04:33;10.80;64.00
84791;DHT22;75024;43.486;3.794;2024-01-25T06:06:58;10.80;64.20
84791;DHT22;75024;43.486;3.794;2024-01-25T06:09:24;10.60;64.50
84791;DHT22;75024;43.486;3.794;2024-01-25T06:11:50;10.50;65.00
84791;DHT22;75024;43.486;3.794;2024-01-25T06:14:16;10.40;66.70
84791;DHT22;75024;43.486;3.794;2024-01-25T06:16:42;10.30;67.70
84791;DHT22;75024;43.486;3.794;2024-01-25T06:19:08;10.30;67.60
84791;DHT22;75024;43.486;3.794;2024-01-25T06:21:34;10.30;67.30
84791;DHT22;75024;43.486;3.794;2024-01-25T06:24:01;10.20;67.30
84791;DHT22;75024;43.486;3.794;2024-01-25T06:26:27;10.10;67.90
84791;DHT22;75024;43.486;3.794;2024-01-25T06:28:53;9.90;68.90
84791;DHT22;75024;43.486;3.794;2024-01-25T06:31:18;9.90;69.00
84791;DHT22;75024;43.486;3.794;2024-01-25T06:33:44;9.90;68.90
84791;DHT22;75024;43.486;3.794;2024-01-25T06:36:13;9.60;70.70
84791;DHT22;75024;43.486;3.794;2024-01-25T06:38:41;9.30;72.00
84791;DHT22;75024;43.486;3.794;2024-01-25T06:41:08;9.10;73.00
84791;DHT22;75024;43.486;3.794;2024-01-25T06:43:34;8.90;73.80
84791;DHT22;75024;43.486;3.794;2024-01-25T06:45:59;8.70;74.40
84791;DHT22;75024;43.486;3.794;2024-01-25T06:48:25;8.60;75.00
84791;DHT22;75024;43.486;3.794;2024-01-25T06:50:50;8.50;75.10
84791;DHT22;75024;43.486;3.794;2024-01-25T06:53:17;8.40;74.90
84791;DHT22;75024;43.486;3.794;2024-01-25T06:55:42;8.50;74.60
84791;DHT22;75024;43.486;3.794;2024-01-25T06:58:08;8.40;75.00
84791;DHT22;75024;43.486;3.794;2024-01-25T07:00:34;8.30;75.30
84791;DHT22;75024;43.486;3.794;2024-01-25T07:03:00;8.10;75.90
84791;DHT22;75024;43.486;3.794;2024-01-25T07:05:25;8.00;76.20
84791;DHT22;75024;43.486;3.794;2024-01-25T07:07:52;8.00;76.30
84791;DHT22;75024;43.486;3.794;2024-01-25T07:10:18;7.90;76.20
84791;DHT22;75024;43.486;3.794;2024-01-25T07:12:44;7.90;76.20
84791;DHT22;75024;43.486;3.794;2024-01-25T07:15:10;7.90;75.90
84791;DHT22;75024;43.486;3.794;2024-01-25T07:17:35;8.00;75.50
84791;DHT22;75024;43.486;3.794;2024-01-25T07:20:01;8.10;75.20
84791;DHT22;75024;43.486;3.794;2024-01-25T07:22:26;8.20;74.80
84791;DHT22;75024;43.486;3.794;2024-01-25T07:24:52;8.40;73.90
84791;DHT22;75024;43.486;3.794;2024-01-25T07:27:18;8.60;72.80
84791;DHT22;75024;43.486;3.794;2024-01-25T07:29:46;8.60;73.00
84791;DHT22;75024;43.486;3.794;2024-01-25T07:32:12;8.50;73.20
84791;DHT22;75024;43.486;3.794;2024-01-25T07:34:38;8.40;73.50
84791;DHT22;75024;43.486;3.794;2024-01-25T07:37:04;8.40;73.50
84791;DHT22;75024;43.486;3.794;2024-01-25T07:39:29;8.40;73.70
84791;DHT22;75024;43.486;3.794;2024-01-25T07:41:55;8.40;74.00
84791;DHT22;75024;43.486;3.794;2024-01-25T07:44:21;8.40;74.10
84791;DHT22;75024;43.486;3.794;2024-01-25T07:46:46;8.40;74.10
84791;DHT22;75024;43.486;3.794;2024-01-25T07:49:12;8.30;74.10
84791;DHT22;75024;43.486;3.794;2024-01-25T07:51:38;8.40;73.90
84791;DHT22;75024;43.486;3.794;2024-01-25T07:54:04;8.50;73.90
84791;DHT22;75024;43.486;3.794;2024-01-25T07:56:29;8.50;73.80
84791;DHT22;75024;43.486;3.794;2024-01-25T07:58:55;8.50;73.90
84791;DHT22;75024;43.486;3.794;2024-01-25T08:01:21;8.60;73.80
84791;DHT22;75024;43.486;3.794;2024-01-25T08:03:47;8.60;73.80
84791;DHT22;75024;43.486;3.794;2024-01-25T08:06:12;8.50;73.40
84791;DHT22;75024;43.486;3.794;2024-01-25T08:08:38;8.50;73.00
84791;DHT22;75024;43.486;3.794;2024-01-25T08:11:04;8.40;73.50
84791;DHT22;75024;43.486;3.794;2024-01-25T08:13:31;8.40;74.40
84791;DHT22;75024;43.486;3.794;2024-01-25T08:15:57;8.50;74.70
84791;DHT22;75024;43.486;3.794;2024-01-25T08:18:23;8.60;74.90
84791;DHT22;75024;43.486;3.794;2024-01-25T08:20:49;8.60;75.20
84791;DHT22;75024;43.486;3.794;2024-01-25T08:23:16;8.80;74.80
84791;DHT22;75024;43.486;3.794;2024-01-25T08:25:42;9.10;74.20
84791;DHT22;75024;43.486;3.794;2024-01-25T08:28:07;9.10;73.70
84791;DHT22;75024;43.486;3.794;2024-01-25T08:30:33;9.10;74.00
84791;DHT22;75024;43.486;3.794;2024-01-25T08:32:59;9.20;73.70
84791;DHT22;75024;43.486;3.794;2024-01-25T08:35:25;9.20;73.80
84791;DHT22;75024;43.486;3.794;2024-01-25T08:37:51;9.30;73.70
84791;DHT22;75024;43.486;3.794;2024-01-25T08:40:17;9.50;73.40
84791;DHT22;75024;43.486;3.794;2024-01-25T08:42:42;9.60;73.00
84791;DHT22;75024;43.486;3.794;2024-01-25T08:45:08;9.80;71.90
84791;DHT22;75024;43.486;3.794;2024-01-25T08:47:37;9.90;72.00
84791;DHT22;75024;43.486;3.794;2024-01-25T08:50:03;10.10;71.40
84791;DHT22;75024;43.486;3.794;2024-01-25T08:52:36;10.20;71.30
84791;DHT22;75024;43.486;3.794;2024-01-25T08:55:03;10.30;71.30
84791;DHT22;75024;43.486;3.794;2024-01-25T08:57:30;10.50;70.30
84791;DHT22;75024;43.486;3.794;2024-01-25T08:59:55;10.70;70.10
84791;DHT22;75024;43.486;3.794;2024-01-25T09:02:24;11.30;68.50
84791;DHT22;75024;43.486;3.794;2024-01-25T09:04:52;11.70;67.10
84791;DHT22;75024;43.486;3.794;2024-01-25T09:07:19;11.90;66.60
84791;DHT22;75024;43.486;3.794;2024-01-25T09:09:45;12.10;65.70
84791;DHT22;75024;43.486;3.794;2024-01-25T09:12:10;12.00;65.90
84791;DHT22;75024;43.486;3.794;2024-01-25T09:14:38;12.40;64.10
84791;DHT22;75024;43.486;3.794;2024-01-25T09:17:04;12.40;64.40
84791;DHT22;75024;43.486;3.794;2024-01-25T09:19:30;12.30;65.00
84791;DHT22;75024;43.486;3.794;2024-01-25T09:21:56;12.30;65.20
84791;DHT22;75024;43.486;3.794;2024-01-25T09:24:23;12.30;65.50
84791;DHT22;75024;43.486;3.794;2024-01-25T09:26:49;12.70;63.80
84791;DHT22;75024;43.486;3.794;2024-01-25T09:29:14;12.70;63.90
84791;DHT22;75024;43.486;3.794;2024-01-25T09:31:40;13.00;63.50
84791;DHT22;75024;43.486;3.794;2024-01-25T09:34:06;13.30;61.30
84791;DHT22;75024;43.486;3.794;2024-01-25T09:36:32;13.30;61.70
84791;DHT22;75024;43.486;3.794;2024-01-25T09:38:57;13.20;60.90
84791;DHT22;75024;43.486;3.794;2024-01-25T09:41:23;13.30;60.50
84791;DHT22;75024;43.486;3.794;2024-01-25T09:43:49;13.50;59.60
84791;DHT22;75024;43.486;3.794;2024-01-25T09:46:15;13.50;61.00
84791;DHT22;75024;43.486;3.794;2024-01-25T09:48:42;13.50;59.40
84791;DHT22;75024;43.486;3.794;2024-01-25T09:51:09;13.60;59.20
84791;DHT22;75024;43.486;3.794;2024-01-25T09:53:37;13.70;59.50
84791;DHT22;75024;43.486;3.794;2024-01-25T09:56:09;13.80;58.80
84791;DHT22;75024;43.486;3.794;2024-01-25T09:58:40;14.00;58.30
84791;DHT22;75024;43.486;3.794;2024-01-25T10:01:14;14.20;57.50
84791;DHT22;75024;43.486;3.794;2024-01-25T10:03:43;14.30;56.60
84791;DHT22;75024;43.486;3.794;2024-01-25T10:06:11;14.40;57.40
84791;DHT22;75024;43.486;3.794;2024-01-25T10:08:36;14.40;56.60
84791;DHT22;75024;43.486;3.794;2024-01-25T10:11:03;14.60;56.10
84791;DHT22;75024;43.486;3.794;2024-01-25T10:13:29;14.70;56.30
84791;DHT22;75024;43.486;3.794;2024-01-25T10:15:55;14.80;56.30
84791;DHT22;75024;43.486;3.794;2024-01-25T10:18:25;14.90;56.60
84791;DHT22;75024;43.486;3.794;2024-01-25T10:20:55;15.00;55.80
84791;DHT22;75024;43.486;3.794;2024-01-25T10:23:21;15.10;55.50
84791;DHT22;75024;43.486;3.794;2024-01-25T10:25:48;15.10;55.00
84791;DHT22;75024;43.486;3.794;2024-01-25T10:28:14;15.10;54.40
84791;DHT22;75024;43.486;3.794;2024-01-25T10:30:40;15.10;54.20
84791;DHT22;75024;43.486;3.794;2024-01-25T10:33:06;15.10;54.00
84791;DHT22;75024;43.486;3.794;2024-01-25T10:35:32;15.20;54.10
84791;DHT22;75024;43.486;3.794;2024-01-25T10:37:58;15.20;54.30
84791;DHT22;75024;43.486;3.794;2024-01-25T10:40:24;15.30;54.50
84791;DHT22;75024;43.486;3.794;2024-01-25T10:42:50;15.30;55.00
84791;DHT22;75024;43.486;3.794;2024-01-25T10:45:16;15.50;54.60
84791;DHT22;75024;43.486;3.794;2024-01-25T10:47:42;15.50;53.50
84791;DHT22;75024;43.486;3.794;2024-01-25T10:50:11;15.60;53.40
84791;DHT22;75024;43.486;3.794;2024-01-25T10:52:39;15.70;53.70
84791;DHT22;75024;43.486;3.794;2024-01-25T10:55:05;15.80;54.60
84791;DHT22;75024;43.486;3.794;2024-01-25T10:57:37;15.70;54.20
84791;DHT22;75024;43.486;3.794;2024-01-25T11:00:06;15.80;53.20
84791;DHT22;75024;43.486;3.794;2024-01-25T11:02:36;15.90;52.20
84791;DHT22;75024;43.486;3.794;2024-01-25T11:05:15;16.00;52.40
84791;DHT22;75024;43.486;3.794;2024-01-25T11:10:21;16.00;51.80
84791;DHT22;75024;43.486;3.794;2024-01-25T11:12:57;15.90;51.90
84791;DHT22;75024;43.486;3.794;2024-01-25T11:15:35;15.90;52.90
84791;DHT22;75024;43.486;3.794;2024-01-25T11:18:02;16.00;52.80
84791;DHT22;75024;43.486;3.794;2024-01-25T11:20:28;16.00;52.30
84791;DHT22;75024;43.486;3.794;2024-01-25T11:23:05;16.00;52.60
84791;DHT22;75024;43.486;3.794;2024-01-25T11:25:33;16.20;52.80
84791;DHT22;75024;43.486;3.794;2024-01-25T11:28:01;16.30;51.90
84791;DHT22;75024;43.486;3.794;2024-01-25T11:30:29;16.50;51.00
84791;DHT22;75024;43.486;3.794;2024-01-25T11:32:55;16.40;52.20
84791;DHT22;75024;43.486;3.794;2024-01-25T11:35:21;16.50;52.40
84791;DHT22;75024;43.486;3.794;2024-01-25T11:37:48;16.40;52.30
84791;DHT22;75024;43.486;3.794;2024-01-25T11:40:16;16.50;52.40
84791;DHT22;75024;43.486;3.794;2024-01-25T11:42:42;16.50;51.50
84791;DHT22;75024;43.486;3.794;2024-01-25T11:45:10;16.60;51.60
84791;DHT22;75024;43.486;3.794;2024-01-25T11:47:37;16.70;51.30
84791;DHT22;75024;43.486;3.794;2024-01-25T11:50:03;16.80;51.10
84791;DHT22;75024;43.486;3.794;2024-01-25T11:52:29;16.80;50.40
84791;DHT22;75024;43.486;3.794;2024-01-25T11:54:58;17.00;49.40
84791;DHT22;75024;43.486;3.794;2024-01-25T11:57:24;16.90;50.30
84791;DHT22;75024;43.486;3.794;2024-01-25T11:59:50;17.00;49.10
84791;DHT22;75024;43.486;3.794;2024-01-25T12:02:16;17.00;49.30
84791;DHT22;75024;43.486;3.794;2024-01-25T12:04:42;17.10;50.90
84791;DHT22;75024;43.486;3.794;2024-01-25T12:07:08;17.00;52.00
84791;DHT22;75024;43.486;3.794;2024-01-25T12:09:33;17.00;51.20
84791;DHT22;75024;43.486;3.794;2024-01-25T12:12:02;17.10;50.40
84791;DHT22;75024;43.486;3.794;2024-01-25T12:14:28;17.20;50.10
84791;DHT22;75024;43.486;3.794;2024-01-25T12:16:57;17.30;49.20
84791;DHT22;75024;43.486;3.794;2024-01-25T12:19:22;17.30;49.10
84791;DHT22;75024;43.486;3.794;2024-01-25T12:21:48;17.30;48.40
84791;DHT22;75024;43.486;3.794;2024-01-25T12:24:14;17.30;48.30
84791;DHT22;75024;43.486;3.794;2024-01-25T12:26:41;17.40;49.00
84791;DHT22;75024;43.486;3.794;2024-01-25T12:29:07;17.50;51.00
84791;DHT22;75024;43.486;3.794;2024-01-25T12:31:34;17.60;50.70
84791;DHT22;75024;43.486;3.794;2024-01-25T12:34:02;17.80;50.30
84791;DHT22;75024;43.486;3.794;2024-01-25T12:36:28;17.80;49.90
84791;DHT22;75024;43.486;3.794;2024-01-25T12:38:54;19.40;46.90
84791;DHT22;75024;43.486;3.794;2024-01-25T12:41:19;20.50;44.70
84791;DHT22;75024;43.486;3.794;2024-01-25T12:43:45;20.30;44.30
84791;DHT22;75024;43.486;3.794;2024-01-25T12:46:10;21.00;43.50
84791;DHT22;75024;43.486;3.794;2024-01-25T12:48:36;21.00;43.60
84791;DHT22;75024;43.486;3.794;2024-01-25T12:51:02;21.30;42.90
84791;DHT22;75024;43.486;3.794;2024-01-25T12:53:28;21.50;42.60
84791;DHT22;75024;43.486;3.794;2024-01-25T12:55:53;21.60;41.60
84791;DHT22;75024;43.486;3.794;2024-01-25T12:58:19;22.10;41.00
84791;DHT22;75024;43.486;3.794;2024-01-25T13:00:44;20.00;43.80
84791;DHT22;75024;43.486;3.794;2024-01-25T13:03:11;18.80;46.10
84791;DHT22;75024;43.486;3.794;2024-01-25T13:05:37;18.50;46.50
84791;DHT22;75024;43.486;3.794;2024-01-25T13:08:05;19.00;45.50
84791;DHT22;75024;43.486;3.794;2024-01-25T13:10:31;18.70;46.00
84791;DHT22;75024;43.486;3.794;2024-01-25T13:12:57;18.60;46.30
84791;DHT22;75024;43.486;3.794;2024-01-25T13:15:23;18.50;46.40
84791;DHT22;75024;43.486;3.794;2024-01-25T13:17:49;18.40;46.20
84791;DHT22;75024;43.486;3.794;2024-01-25T13:20:15;18.30;46.50
84791;DHT22;75024;43.486;3.794;2024-01-25T13:22:41;18.10;46.90
84791;DHT22;75024;43.486;3.794;2024-01-25T13:25:07;18.20;47.10
84791;DHT22;75024;43.486;3.794;2024-01-25T13:27:35;18.10;47.30
84791;DHT22;75024;43.486;3.794;2024-01-25T13:30:01;18.00;47.60
84791;DHT22;75024;43.486;3.794;2024-01-25T13:32:26;17.90;48.00
84791;DHT22;75024;43.486;3.794;2024-01-25T13:34:52;17.80;47.80
84791;DHT22;75024;43.486;3.794;2024-01-25T13:37:18;17.60;47.70
84791;DHT22;75024;43.486;3.794;2024-01-25T13:39:44;17.60;47.80
84791;DHT22;75024;43.486;3.794;2024-01-25T13:42:09;17.50;48.00
84791;DHT22;75024;43.486;3.794;2024-01-25T13:44:35;17.50;47.90
84791;DHT22;75024;43.486;3.794;2024-01-25T13:47:01;17.70;48.50
84791;DHT22;75024;43.486;3.794;2024-01-25T13:49:27;17.50;48.20
84791;DHT22;75024;43.486;3.794;2024-01-25T13:51:52;17.40;48.70
84791;DHT22;75024;43.486;3.794;2024-01-25T13:54:18;17.40;48.40
84791;DHT22;75024;43.486;3.794;2024-01-25T13:56:44;17.40;48.50
84791;DHT22;75024;43.486;3.794;2024-01-25T13:59:09;17.50;47.60
84791;DHT22;75024;43.486;3.794;2024-01-25T14:01:35;17.50;46.70
84791;DHT22;75024;43.486;3.794;2024-01-25T14:04:03;17.60;46.80
84791;DHT22;75024;43.486;3.794;2024-01-25T14:06:28;17.70;46.50
84791;DHT22;75024;43.486;3.794;2024-01-25T14:08:54;17.70;46.90
84791;DHT22;75024;43.486;3.794;2024-01-25T14:11:19;17.80;46.70
84791;DHT22;75024;43.486;3.794;2024-01-25T14:13:45;17.90;46.30
84791;DHT22;75024;43.486;3.794;2024-01-25T14:16:11;18.00;46.20
84791;DHT22;75024;43.486;3.794;2024-01-25T14:18:42;18.10;46.40
84791;DHT22;75024;43.486;3.794;2024-01-25T14:21:08;18.20;46.00
84791;DHT22;75024;43.486;3.794;2024-01-25T14:23:33;18.20;46.20
84791;DHT22;75024;43.486;3.794;2024-01-25T14:25:59;18.20;46.20
84791;DHT22;75024;43.486;3.794;2024-01-25T14:28:24;18.00;46.70
84791;DHT22;75024;43.486;3.794;2024-01-25T14:30:50;18.00;47.60
84791;DHT22;75024;43.486;3.794;2024-01-25T14:33:16;18.40;46.60
84791;DHT22;75024;43.486;3.794;2024-01-25T14:35:41;19.10;44.60
84791;DHT22;75024;43.486;3.794;2024-01-25T14:38:07;21.70;41.30
84791;DHT22;75024;43.486;3.794;2024-01-25T14:40:33;22.90;39.70
84791;DHT22;75024;43.486;3.794;2024-01-25T14:42:58;22.90;39.00
84791;DHT22;75024;43.486;3.794;2024-01-25T14:45:25;24.20;37.30
84791;DHT22;75024;43.486;3.794;2024-01-25T14:47:51;22.80;38.80
84791;DHT22;75024;43.486;3.794;2024-01-25T14:50:17;22.30;39.70
84791;DHT22;75024;43.486;3.794;2024-01-25T14:52:43;22.70;39.50
84791;DHT22;75024;43.486;3.794;2024-01-25T14:55:09;22.80;39.40
84791;DHT22;75024;43.486;3.794;2024-01-25T14:57:34;22.50;40.00
84791;DHT22;75024;43.486;3.794;2024-01-25T15:00:00;23.00;39.20
84791;DHT22;75024;43.486;3.794;2024-01-25T15:02:26;23.90;38.20
84791;DHT22;75024;43.486;3.794;2024-01-25T15:04:52;23.80;38.10
84791;DHT22;75024;43.486;3.794;2024-01-25T15:07:17;23.60;38.20
84791;DHT22;75024;43.486;3.794;2024-01-25T15:09:49;23.10;39.00
84791;DHT22;75024;43.486;3.794;2024-01-25T15:12:15;23.40;38.70
84791;DHT22;75024;43.486;3.794;2024-01-25T15:14:41;23.60;39.20
84791;DHT22;75024;43.486;3.794;2024-01-25T15:17:07;24.60;37.80
84791;DHT22;75024;43.486;3.794;2024-01-25T15:19:33;24.90;37.40
84791;DHT22;75024;43.486;3.794;2024-01-25T15:21:59;23.70;38.80
84791;DHT22;75024;43.486;3.794;2024-01-25T15:24:24;23.10;40.30
84791;DHT22;75024;43.486;3.794;2024-01-25T15:26:52;22.20;41.50
84791;DHT22;75024;43.486;3.794;2024-01-25T15:29:17;22.90;40.60